createdAt,value
2018-08-16T00:00:54.176Z,18.96
2018-08-16T00:03:24.088Z,19.07
2018-08-16T00:05:54.104Z,19.15
2018-08-16T00:08:24.302Z,19.13
2018-08-16T00:10:54.101Z,19.20
2018-08-16T00:13:24.231Z,19.16
2018-08-16T00:15:54.322Z,19.08
2018-08-16T00:18:24.365Z,19.08
2018-08-16T00:20:54.405Z,19.00
2018-08-16T00:23:24.430Z,18.99
2018-08-16T00:25:54.336Z,18.99
2018-08-16T00:28:24.364Z,18.90
2018-08-16T00:30:54.226Z,18.85
2018-08-16T00:33:24.139Z,18.78
2018-08-16T00:35:54.114Z,18.77
2018-08-16T00:38:24.182Z,18.71
2018-08-16T00:40:54.088Z,18.69
2018-08-16T00:43:23.951Z,18.68
2018-08-16T00:45:53.904Z,18.66
2018-08-16T00:48:23.788Z,18.69
2018-08-16T00:50:53.798Z,18.63
2018-08-16T00:53:23.657Z,18.59
2018-08-16T00:55:54.185Z,18.59
2018-08-16T00:58:24.180Z,18.62
2018-08-16T01:00:54.288Z,18.70
2018-08-16T01:03:24.276Z,18.65
2018-08-16T01:05:54.081Z,18.65
2018-08-16T01:08:23.891Z,18.68
2018-08-16T01:10:53.696Z,18.53
2018-08-16T01:13:23.610Z,18.43
2018-08-16T01:15:53.558Z,18.43
2018-08-16T01:18:23.436Z,18.40
2018-08-16T01:20:53.484Z,18.38
2018-08-16T01:23:23.319Z,18.42
2018-08-16T01:25:53.358Z,18.40
2018-08-16T01:28:23.328Z,18.42
2018-08-16T01:30:53.232Z,18.51
2018-08-16T01:33:23.297Z,18.56
2018-08-16T01:35:53.328Z,18.62
2018-08-16T01:38:23.300Z,18.70
2018-08-16T01:40:53.401Z,18.76
2018-08-16T01:43:23.355Z,18.78
2018-08-16T01:45:53.263Z,18.81
2018-08-16T01:48:23.080Z,18.81
2018-08-16T01:50:52.998Z,18.82
2018-08-16T01:53:22.882Z,18.81
2018-08-16T01:55:52.810Z,18.80
2018-08-16T01:58:22.600Z,18.81
2018-08-16T02:00:52.667Z,18.82
2018-08-16T02:03:22.735Z,18.82
2018-08-16T02:05:52.781Z,18.82
2018-08-16T02:08:22.825Z,18.80
2018-08-16T02:10:52.614Z,18.81
2018-08-16T02:13:23.466Z,18.78
2018-08-16T02:15:53.360Z,18.78
2018-08-16T02:18:23.363Z,18.76
2018-08-16T02:20:53.372Z,18.75
2018-08-16T02:23:23.202Z,18.73
2018-08-16T02:25:53.126Z,18.72
2018-08-16T02:28:22.964Z,18.74
2018-08-16T02:30:53.004Z,18.75
2018-08-16T02:33:22.880Z,18.73
2018-08-16T02:35:52.941Z,18.74
2018-08-16T02:38:22.932Z,18.73
2018-08-16T02:40:52.996Z,18.71
2018-08-16T02:43:22.908Z,18.70
2018-08-16T02:45:52.697Z,18.67
2018-08-16T02:48:22.626Z,18.63
2018-08-16T02:50:52.523Z,18.59
2018-08-16T02:53:22.681Z,18.64
2018-08-16T02:55:52.805Z,18.62
2018-08-16T02:58:22.729Z,18.64
2018-08-16T03:00:52.838Z,18.67
2018-08-16T03:03:22.691Z,18.70
2018-08-16T03:05:52.604Z,18.71
2018-08-16T03:08:22.822Z,18.69
2018-08-16T03:10:52.758Z,18.70
2018-08-16T03:13:22.524Z,18.73
2018-08-16T03:15:52.356Z,18.71
2018-08-16T03:18:22.396Z,18.74
2018-08-16T03:20:52.386Z,18.76
2018-08-16T03:23:22.180Z,18.78
2018-08-16T03:25:52.244Z,18.81
2018-08-16T03:28:22.023Z,18.76
2018-08-16T03:30:51.845Z,18.72
2018-08-16T03:33:21.900Z,18.70
2018-08-16T03:35:51.788Z,18.68
2018-08-16T03:38:21.756Z,18.69
2018-08-16T03:40:51.586Z,18.71
2018-08-16T03:43:21.583Z,18.67
2018-08-16T03:45:51.506Z,18.66
2018-08-16T03:48:21.373Z,18.70
2018-08-16T03:50:51.396Z,18.72
2018-08-16T03:53:21.304Z,18.80
2018-08-16T03:55:51.331Z,18.77
2018-08-16T03:58:21.236Z,18.62
2018-08-16T04:00:51.352Z,18.59
2018-08-16T04:03:21.587Z,18.61
2018-08-16T04:05:51.590Z,18.62
2018-08-16T04:08:21.384Z,18.58
2018-08-16T04:10:51.382Z,18.62
2018-08-16T04:13:21.238Z,18.72
2018-08-16T04:15:51.068Z,18.67
2018-08-16T04:18:20.961Z,18.70
2018-08-16T04:20:50.788Z,18.72
2018-08-16T04:23:20.684Z,18.69
2018-08-16T04:25:50.627Z,18.71
2018-08-16T04:28:20.719Z,18.71
2018-08-16T04:30:50.589Z,18.71
2018-08-16T04:33:20.482Z,18.76
2018-08-16T04:35:50.353Z,18.78
2018-08-16T04:38:20.177Z,18.74
2018-08-16T04:40:50.184Z,18.75
2018-08-16T04:43:19.971Z,18.77
2018-08-16T04:45:50.127Z,18.78
2018-08-16T04:48:19.992Z,18.81
2018-08-16T04:50:49.981Z,18.84
2018-08-16T04:53:19.884Z,18.86
2018-08-16T04:55:49.917Z,18.91
2018-08-16T04:58:19.777Z,18.95
2018-08-16T05:00:49.745Z,19.02
2018-08-16T05:03:19.771Z,19.07
2018-08-16T05:05:49.529Z,19.10
2018-08-16T05:08:19.480Z,19.12
2018-08-16T05:10:49.285Z,19.16
2018-08-16T05:13:19.076Z,19.23
2018-08-16T05:15:49.020Z,19.37
2018-08-16T05:18:18.941Z,19.54
2018-08-16T05:20:48.831Z,19.57
2018-08-16T05:23:18.795Z,19.60
2018-08-16T05:25:48.670Z,19.58
2018-08-16T05:28:18.460Z,19.59
2018-08-16T05:30:48.345Z,19.62
2018-08-16T05:33:18.232Z,19.66
2018-08-16T05:35:48.097Z,19.69
2018-08-16T05:38:17.996Z,19.73
2018-08-16T05:40:48.026Z,19.81
2018-08-16T05:43:18.371Z,19.85
2018-08-16T05:45:48.414Z,19.88
2018-08-16T05:48:18.348Z,19.96
2018-08-16T05:50:48.224Z,20.03
2018-08-16T05:53:18.097Z,20.04
2018-08-16T05:55:47.965Z,20.07
2018-08-16T05:58:17.891Z,20.13
2018-08-16T06:00:47.908Z,20.17
2018-08-16T06:03:17.818Z,20.22
2018-08-16T06:05:47.793Z,20.26
2018-08-16T06:08:17.543Z,20.33
2018-08-16T06:10:47.367Z,20.37
2018-08-16T06:13:17.281Z,20.40
2018-08-16T06:15:47.209Z,20.45
2018-08-16T06:18:17.146Z,20.57
2018-08-16T06:20:47.069Z,20.63
2018-08-16T06:23:17.024Z,20.68
2018-08-16T06:25:46.988Z,20.76
2018-08-16T06:28:16.941Z,20.78
2018-08-16T06:30:46.784Z,20.87
2018-08-16T06:33:16.717Z,20.96
2018-08-16T06:35:46.619Z,21.03
2018-08-16T06:38:16.738Z,21.14
2018-08-16T06:40:46.933Z,21.24
2018-08-16T06:43:17.211Z,21.29
2018-08-16T06:45:47.336Z,21.33
2018-08-16T06:48:17.518Z,21.41
2018-08-16T06:50:47.581Z,21.49
2018-08-16T06:53:17.906Z,21.51
2018-08-16T06:55:47.897Z,21.57
2018-08-16T06:58:17.833Z,21.63
2018-08-16T07:00:47.857Z,21.67
2018-08-16T07:03:17.733Z,21.79
2018-08-16T07:05:47.581Z,21.89
2018-08-16T07:08:17.736Z,22.02
2018-08-16T07:10:47.622Z,22.13
2018-08-16T07:13:17.701Z,22.17
2018-08-16T07:15:47.857Z,22.26
2018-08-16T07:18:17.760Z,22.32
2018-08-16T07:20:47.579Z,22.39
2018-08-16T07:23:18.023Z,22.46
2018-08-16T07:25:47.927Z,22.53
2018-08-16T07:28:17.999Z,22.58
2018-08-16T07:30:47.969Z,22.67
2018-08-16T07:33:17.852Z,22.74
2018-08-16T07:35:47.752Z,22.82
2018-08-16T07:38:18.227Z,22.85
2018-08-16T07:40:48.179Z,22.90
2018-08-16T07:43:18.181Z,22.92
2018-08-16T07:45:50.010Z,22.96
2018-08-16T07:48:20.220Z,23.00
2018-08-16T07:50:50.165Z,23.12
2018-08-16T07:53:20.155Z,23.15
2018-08-16T07:55:50.495Z,23.16
2018-08-16T07:58:22.301Z,23.21
2018-08-16T08:00:52.251Z,23.26
2018-08-16T08:03:22.620Z,23.27
2018-08-16T08:05:52.609Z,23.32
2018-08-16T08:08:22.512Z,23.38
2018-08-16T08:10:52.510Z,23.51
2018-08-16T08:13:22.486Z,23.60
2018-08-16T08:15:52.458Z,23.72
2018-08-16T08:18:22.623Z,23.96
2018-08-16T08:20:52.604Z,23.90
2018-08-16T08:23:22.553Z,23.91
2018-08-16T08:25:52.730Z,23.88
2018-08-16T08:28:22.717Z,23.78
2018-08-16T08:30:52.789Z,23.73
2018-08-16T08:33:22.691Z,23.79
2018-08-16T08:37:06.973Z,23.79
2018-08-16T08:39:36.776Z,23.87
2018-08-16T08:42:06.631Z,23.83
2018-08-16T08:44:36.737Z,24.00
2018-08-16T08:47:06.907Z,23.92
2018-08-16T08:49:36.847Z,23.81
2018-08-16T08:52:07.070Z,23.86
2018-08-16T08:54:55.859Z,23.80
2018-08-16T08:57:42.459Z,23.66
2018-08-16T09:00:12.436Z,23.59
2018-08-16T09:02:42.359Z,23.62
2018-08-16T09:05:12.231Z,23.67
2018-08-16T09:07:42.437Z,23.64
2018-08-16T09:11:27.089Z,23.51
2018-08-16T09:15:15.628Z,23.35
2018-08-16T09:17:45.646Z,23.63
2018-08-16T09:20:15.649Z,23.64
2018-08-16T09:22:45.868Z,23.76
2018-08-16T09:25:15.740Z,23.78
2018-08-16T09:27:45.527Z,23.86
2018-08-16T09:31:31.363Z,24.03
2018-08-16T09:34:17.749Z,24.24
2018-08-16T09:36:47.877Z,24.43
2018-08-16T09:39:17.951Z,24.56
2018-08-16T09:41:48.196Z,24.60
2018-08-16T09:44:18.068Z,24.87
2018-08-16T09:47:11.564Z,24.84
2018-08-16T09:49:51.528Z,24.68
2018-08-16T09:52:22.495Z,24.49
2018-08-16T09:54:52.400Z,24.39
2018-08-16T09:57:22.261Z,24.40
2018-08-16T09:59:52.434Z,24.26
2018-08-16T10:02:22.372Z,24.21
2018-08-16T10:04:52.311Z,24.31
2018-08-16T10:07:22.440Z,24.51
2018-08-16T10:09:52.461Z,24.60
2018-08-16T10:12:22.364Z,24.68
2018-08-16T10:14:52.429Z,24.65
2018-08-16T10:17:22.640Z,24.64
2018-08-16T10:19:52.976Z,24.76
2018-08-16T10:22:23.003Z,24.79
2018-08-16T10:24:53.340Z,24.79
2018-08-16T10:27:23.191Z,24.77
2018-08-16T10:29:53.217Z,24.91
2018-08-16T10:32:23.391Z,24.94
2018-08-16T10:34:53.478Z,25.01
2018-08-16T10:37:23.447Z,25.22
2018-08-16T10:39:53.324Z,25.20
2018-08-16T10:42:23.093Z,25.41
2018-08-16T10:44:53.115Z,25.42
2018-08-16T10:47:23.368Z,25.49
2018-08-16T10:49:55.117Z,25.50
2018-08-16T10:52:24.956Z,25.54
2018-08-16T10:54:55.351Z,25.57
2018-08-16T10:57:25.355Z,25.38
2018-08-16T10:59:55.330Z,25.39
2018-08-16T11:02:25.264Z,25.53
2018-08-16T11:04:55.345Z,25.61
2018-08-16T11:07:25.319Z,25.75
2018-08-16T11:09:55.311Z,25.86
2018-08-16T11:12:25.208Z,25.95
2018-08-16T11:14:55.080Z,26.04
2018-08-16T11:17:24.979Z,25.97
2018-08-16T11:19:55.251Z,26.00
2018-08-16T11:22:25.420Z,26.09
2018-08-16T11:24:55.641Z,26.05
2018-08-16T11:27:25.561Z,26.03
2018-08-16T11:29:55.664Z,26.08
2018-08-16T11:32:25.779Z,26.14
2018-08-16T11:34:55.642Z,26.01
2018-08-16T11:37:25.605Z,25.94
2018-08-16T11:39:55.619Z,26.02
2018-08-16T11:42:25.507Z,25.96
2018-08-16T11:44:55.508Z,25.96
2018-08-16T11:47:25.740Z,25.99
2018-08-16T11:49:56.041Z,26.12
2018-08-16T11:52:26.257Z,26.21
2018-08-16T11:54:56.409Z,26.20
2018-08-16T11:57:26.479Z,26.18
2018-08-16T11:59:56.332Z,26.19
2018-08-16T12:02:26.323Z,26.35
2018-08-16T12:04:56.267Z,26.44
2018-08-16T12:07:26.135Z,26.47
2018-08-16T12:09:55.966Z,26.46
2018-08-16T12:12:26.265Z,26.44
2018-08-16T12:14:56.248Z,26.63
2018-08-16T12:17:26.368Z,26.58
2018-08-16T12:19:56.463Z,26.57
2018-08-16T12:22:26.465Z,26.70
2018-08-16T12:24:56.390Z,26.69
2018-08-16T12:27:26.512Z,26.70
2018-08-16T12:29:56.662Z,26.72
2018-08-16T12:32:27.054Z,26.72
2018-08-16T12:34:57.184Z,26.64
2018-08-16T12:37:27.020Z,26.62
2018-08-16T12:39:56.819Z,26.83
2018-08-16T12:42:27.016Z,26.84
2018-08-16T12:44:57.090Z,26.94
2018-08-16T12:47:27.114Z,27.07
2018-08-16T12:49:56.926Z,27.13
2018-08-16T12:52:26.788Z,27.19
2018-08-16T12:54:57.100Z,27.20
2018-08-16T12:57:27.267Z,27.32
2018-08-16T12:59:57.370Z,27.46
2018-08-16T13:02:27.442Z,27.55
2018-08-16T13:04:57.706Z,27.60
2018-08-16T13:07:27.785Z,27.76
2018-08-16T13:09:57.818Z,27.88
2018-08-16T13:12:27.670Z,28.02
2018-08-16T13:14:57.561Z,28.23
2018-08-16T13:17:27.407Z,28.28
2018-08-16T13:19:57.197Z,28.36
2018-08-16T13:22:27.422Z,28.35
2018-08-16T13:24:57.427Z,28.45
2018-08-16T13:27:27.659Z,28.55
2018-08-16T13:29:57.877Z,28.72
2018-08-16T13:32:28.132Z,28.89
2018-08-16T13:34:57.899Z,29.08
2018-08-16T13:37:27.827Z,29.18
2018-08-16T13:39:57.853Z,29.25
2018-08-16T13:42:28.203Z,29.29
2018-08-16T13:44:58.284Z,29.34
2018-08-16T13:47:28.244Z,29.09
2018-08-16T13:49:58.100Z,29.17
2018-08-16T13:52:27.989Z,29.20
2018-08-16T13:54:57.849Z,29.44
2018-08-16T13:57:27.731Z,29.63
2018-08-16T13:59:57.661Z,29.74
2018-08-16T14:02:27.734Z,30.05
2018-08-16T14:04:57.597Z,30.36
2018-08-16T14:07:27.633Z,30.24
2018-08-16T14:09:57.731Z,30.04
2018-08-16T14:12:27.879Z,30.11
2018-08-16T14:14:58.229Z,30.20
2018-08-16T14:17:28.080Z,30.35
2018-08-16T14:19:58.188Z,30.61
2018-08-16T14:22:28.374Z,30.70
2018-08-16T14:24:58.424Z,30.70
2018-08-16T14:27:28.462Z,30.72
2018-08-16T14:29:58.304Z,30.89
2018-08-16T14:32:28.376Z,30.94
2018-08-16T14:34:58.405Z,31.02
2018-08-16T14:37:28.272Z,31.30
2018-08-16T14:39:58.357Z,31.30
2018-08-16T14:42:28.460Z,31.25
2018-08-16T14:44:58.416Z,31.28
2018-08-16T14:47:28.249Z,31.05
2018-08-16T14:49:58.342Z,30.83
2018-08-16T14:52:28.352Z,31.24
2018-08-16T14:54:58.457Z,30.48
2018-08-16T14:57:28.272Z,30.06
2018-08-16T14:59:58.193Z,30.15
2018-08-16T15:02:27.976Z,30.44
2018-08-16T15:04:58.402Z,29.90
2018-08-16T15:07:28.308Z,30.25
2018-08-16T15:09:58.193Z,30.48
2018-08-16T15:12:28.078Z,30.60
2018-08-16T15:14:58.179Z,30.77
2018-08-16T15:17:28.261Z,30.60
2018-08-16T15:19:58.104Z,30.27
2018-08-16T15:22:28.099Z,30.03
2018-08-16T15:24:57.973Z,29.69
2018-08-16T15:27:27.909Z,29.24
2018-08-16T15:29:57.736Z,28.98
2018-08-16T15:32:27.622Z,28.79
2018-08-16T15:34:57.596Z,28.40
2018-08-16T15:37:27.549Z,28.32
2018-08-16T15:39:57.451Z,28.26
2018-08-16T15:42:27.293Z,28.09
2018-08-16T15:44:57.205Z,27.86
2018-08-16T15:47:27.411Z,27.84
2018-08-16T15:49:57.291Z,27.83
2018-08-16T15:52:27.033Z,27.82
2018-08-16T15:54:56.973Z,27.87
2018-08-16T15:57:26.795Z,27.73
2018-08-16T15:59:56.925Z,27.72
2018-08-16T16:02:26.956Z,27.73
2018-08-16T16:04:57.041Z,27.74
2018-08-16T16:07:27.066Z,27.60
2018-08-16T16:09:57.061Z,27.59
2018-08-16T16:12:27.276Z,27.60
2018-08-16T16:14:57.598Z,27.59
2018-08-16T16:17:27.836Z,27.57
2018-08-16T16:19:57.739Z,27.58
2018-08-16T16:22:27.837Z,27.71
2018-08-16T16:24:57.893Z,27.45
2018-08-16T16:27:27.968Z,27.40
2018-08-16T16:29:57.916Z,27.42
2018-08-16T16:32:27.998Z,27.35
2018-08-16T16:34:57.941Z,27.28
2018-08-16T16:37:28.066Z,27.30
2018-08-16T16:39:58.110Z,27.22
2018-08-16T16:42:28.254Z,27.16
2018-08-16T16:44:58.190Z,27.25
2018-08-16T16:47:28.192Z,27.26
2018-08-16T16:49:58.294Z,27.10
2018-08-16T16:52:28.425Z,27.04
2018-08-16T16:54:58.288Z,27.17
2018-08-16T16:57:28.375Z,27.10
2018-08-16T16:59:58.561Z,26.94
2018-08-16T17:02:28.450Z,27.08
2018-08-16T17:04:58.556Z,26.99
2018-08-16T17:07:28.567Z,26.99
2018-08-16T17:09:58.600Z,27.00
2018-08-16T17:12:28.552Z,26.85
2018-08-16T17:14:58.592Z,26.76
2018-08-16T17:17:28.733Z,26.85
2018-08-16T17:19:58.604Z,26.84
2018-08-16T17:22:28.513Z,26.71
2018-08-16T17:24:58.541Z,26.70
2018-08-16T17:27:28.946Z,26.71
2018-08-16T17:29:58.827Z,26.50
2018-08-16T17:32:28.802Z,26.62
2018-08-16T17:34:58.767Z,26.76
2018-08-16T17:37:28.893Z,26.77
2018-08-16T17:39:58.796Z,26.75
2018-08-16T17:42:28.939Z,26.65
2018-08-16T17:45:00.644Z,26.59
2018-08-16T17:47:30.664Z,26.46
2018-08-16T17:50:00.639Z,26.41
2018-08-16T17:52:30.729Z,26.41
2018-08-16T17:55:00.736Z,26.27
2018-08-16T17:57:30.984Z,26.43
2018-08-16T18:00:01.007Z,26.35
2018-08-16T18:02:31.278Z,26.23
2018-08-16T18:05:01.175Z,26.35
2018-08-16T18:07:31.095Z,26.06
2018-08-16T18:10:01.091Z,26.18
2018-08-16T18:12:31.059Z,26.17
2018-08-16T18:15:00.920Z,26.14
2018-08-16T18:17:30.845Z,26.11
2018-08-16T18:20:00.741Z,26.10
2018-08-16T18:22:30.640Z,25.99
2018-08-16T18:25:00.632Z,25.95
2018-08-16T18:27:30.667Z,25.91
2018-08-16T18:30:00.588Z,25.88
2018-08-16T18:32:30.376Z,25.87
2018-08-16T18:35:00.192Z,25.81
2018-08-16T18:37:30.173Z,25.72
2018-08-16T18:40:00.022Z,25.64
2018-08-16T18:42:30.191Z,25.54
2018-08-16T18:45:00.127Z,25.52
2018-08-16T18:47:30.299Z,25.49
2018-08-16T18:50:00.215Z,25.45
2018-08-16T18:52:30.534Z,25.38
2018-08-16T18:55:00.345Z,25.35
2018-08-16T18:57:30.447Z,25.27
2018-08-16T19:00:00.332Z,25.27
2018-08-16T19:02:30.201Z,25.23
2018-08-16T19:05:00.261Z,25.24
2018-08-16T19:07:30.093Z,25.21
2018-08-16T19:10:00.274Z,25.09
2018-08-16T19:12:30.357Z,25.12
2018-08-16T19:15:00.393Z,25.08
2018-08-16T19:17:30.514Z,25.10
2018-08-16T19:20:00.416Z,24.98
2018-08-16T19:22:30.511Z,24.94
2018-08-16T19:25:00.355Z,24.85
2018-08-16T19:27:30.347Z,24.84
2018-08-16T19:30:00.343Z,24.79
2018-08-16T19:32:30.178Z,24.69
2018-08-16T19:35:00.208Z,24.81
2018-08-16T19:37:30.171Z,24.75
2018-08-16T19:40:00.104Z,24.64
2018-08-16T19:42:30.115Z,24.56
2018-08-16T19:45:00.147Z,24.48
2018-08-16T19:47:29.976Z,24.49
2018-08-16T19:50:00.025Z,24.35
2018-08-16T19:52:30.309Z,24.33
2018-08-16T19:55:00.232Z,24.28
2018-08-16T19:57:30.424Z,24.21
2018-08-16T20:00:01.541Z,24.10
2018-08-16T20:02:31.356Z,24.13
2018-08-16T20:05:01.833Z,24.14
2018-08-16T20:07:31.691Z,24.01
2018-08-16T20:10:01.712Z,23.98
2018-08-16T20:12:31.647Z,23.88
2018-08-16T20:15:01.643Z,23.72
2018-08-16T20:17:31.593Z,23.71
2018-08-16T20:20:01.521Z,23.69
2018-08-16T20:22:32.057Z,23.66
2018-08-16T20:25:01.905Z,23.59
2018-08-16T20:27:31.786Z,23.60
2018-08-16T20:30:01.605Z,23.66
2018-08-16T20:32:31.772Z,23.54
2018-08-16T20:35:01.580Z,23.53
2018-08-16T20:37:31.508Z,23.46
2018-08-16T20:40:01.583Z,23.39
2018-08-16T20:42:31.436Z,23.44
2018-08-16T20:45:01.451Z,23.41
2018-08-16T20:47:31.275Z,23.40
2018-08-16T20:50:01.185Z,23.31
2018-08-16T20:52:31.160Z,23.32
2018-08-16T20:55:01.189Z,23.31
2018-08-16T20:57:31.184Z,23.35
2018-08-16T21:00:00.932Z,23.27
2018-08-16T21:02:31.091Z,23.21
2018-08-16T21:05:00.983Z,23.25
2018-08-16T21:07:31.187Z,23.22
2018-08-16T21:10:01.023Z,23.23
2018-08-16T21:12:30.815Z,23.16
2018-08-16T21:15:00.808Z,22.95
2018-08-16T21:17:30.887Z,23.03
2018-08-16T21:20:00.705Z,23.02
2018-08-16T21:22:30.705Z,22.97
2018-08-16T21:25:00.592Z,22.96
2018-08-16T21:27:30.598Z,22.93
2018-08-16T21:30:00.754Z,22.95
2018-08-16T21:32:30.869Z,22.87
2018-08-16T21:35:01.054Z,22.87
2018-08-16T21:37:30.976Z,22.90
2018-08-16T21:40:00.968Z,22.93
2018-08-16T21:42:31.051Z,22.91
2018-08-16T21:45:00.842Z,22.91
2018-08-16T21:47:30.963Z,22.81
2018-08-16T21:50:01.192Z,22.78
2018-08-16T21:52:31.041Z,22.70
2018-08-16T21:55:00.999Z,22.77
2018-08-16T21:57:30.936Z,22.73
2018-08-16T22:00:00.894Z,22.63
2018-08-16T22:02:30.837Z,22.77
2018-08-16T22:05:00.803Z,22.69
2018-08-16T22:08:11.841Z,22.58
2018-08-16T22:10:43.053Z,22.52
2018-08-16T22:13:12.943Z,22.56
2018-08-16T22:15:43.091Z,22.62
2018-08-16T22:18:13.138Z,22.53
2018-08-16T22:20:43.100Z,22.51
2018-08-16T22:23:13.038Z,22.52
2018-08-16T22:25:42.916Z,22.54
2018-08-16T22:28:13.000Z,22.57
2018-08-16T22:30:43.108Z,22.50
2018-08-16T22:33:12.974Z,22.34
2018-08-16T22:35:42.921Z,22.44
2018-08-16T22:38:12.904Z,22.41
2018-08-16T22:40:43.106Z,22.48
2018-08-16T22:43:13.177Z,22.30
2018-08-16T22:45:43.074Z,22.33
2018-08-16T22:48:12.931Z,22.39
2018-08-16T22:50:43.159Z,22.41
2018-08-16T22:53:13.210Z,22.40
2018-08-16T22:55:43.241Z,22.40
2018-08-16T22:58:13.056Z,22.30
2018-08-16T23:00:43.009Z,22.18
2018-08-16T23:03:12.936Z,22.31
2018-08-16T23:05:42.877Z,22.20
2018-08-16T23:08:12.950Z,22.26
2018-08-16T23:10:42.854Z,22.20
2018-08-16T23:13:12.845Z,22.18
2018-08-16T23:15:42.809Z,22.20
2018-08-16T23:18:12.649Z,22.21
2018-08-16T23:20:42.644Z,22.16
2018-08-16T23:23:12.679Z,22.18
2018-08-16T23:25:42.552Z,22.29
2018-08-16T23:28:12.908Z,22.26
2018-08-16T23:30:42.872Z,22.23
2018-08-16T23:33:12.780Z,22.23
2018-08-16T23:35:42.807Z,22.12
2018-08-16T23:38:12.755Z,22.14
2018-08-16T23:40:42.566Z,22.12
2018-08-16T23:43:12.560Z,22.09
2018-08-16T23:45:42.348Z,22.09
2018-08-16T23:48:26.212Z,22.10
2018-08-16T23:50:56.097Z,22.15
2018-08-16T23:53:25.960Z,22.06
2018-08-16T23:55:56.429Z,22.17
2018-08-16T23:58:26.389Z,22.05
